createdAt,value
2023-05-31T00:01:11.352Z,12.44
2023-05-31T00:03:59.477Z,12.41
2023-05-31T00:06:47.599Z,12.36
2023-05-31T00:10:04.064Z,12.35
2023-05-31T00:12:51.863Z,12.32
2023-05-31T00:15:39.659Z,12.27
2023-05-31T00:18:27.569Z,12.23
2023-05-31T00:21:16.231Z,12.18
2023-05-31T00:24:04.094Z,12.15
2023-05-31T00:26:51.970Z,12.12
2023-05-31T00:29:39.721Z,12.08
2023-05-31T00:32:27.842Z,12.05
2023-05-31T00:35:15.831Z,12.07
2023-05-31T00:38:08.420Z,12.04
2023-05-31T00:40:56.467Z,12.01
2023-05-31T00:43:44.837Z,11.97
2023-05-31T00:46:37.052Z,11.92
2023-05-31T00:49:27.945Z,11.91
2023-05-31T00:52:16.297Z,11.88
2023-05-31T00:55:05.776Z,11.87
2023-05-31T00:57:53.855Z,11.85
2023-05-31T01:00:41.671Z,11.84
2023-05-31T01:03:29.643Z,11.85
2023-05-31T01:06:17.940Z,11.82
2023-05-31T01:09:11.212Z,11.80
2023-05-31T01:12:22.889Z,11.77
2023-05-31T01:15:35.271Z,11.73
2023-05-31T01:18:59.047Z,11.71
2023-05-31T01:22:02.772Z,11.63
2023-05-31T01:25:38.395Z,11.62
2023-05-31T01:28:36.272Z,11.62
2023-05-31T01:31:24.497Z,11.63
2023-05-31T01:34:13.693Z,11.62
2023-05-31T01:37:01.534Z,11.61
2023-05-31T01:39:52.941Z,11.61
2023-05-31T01:42:43.444Z,11.59
2023-05-31T01:45:32.786Z,11.58
2023-05-31T01:48:21.094Z,11.55
2023-05-31T01:51:15.401Z,11.53
2023-05-31T01:54:03.754Z,11.50
2023-05-31T01:56:53.406Z,11.48
2023-05-31T02:00:37.710Z,11.46
2023-05-31T02:03:26.856Z,11.40
2023-05-31T02:06:14.975Z,11.40
2023-05-31T02:09:07.017Z,11.40
2023-05-31T02:11:54.909Z,11.33
2023-05-31T02:14:44.182Z,11.30
2023-05-31T02:17:34.686Z,11.31
2023-05-31T02:20:24.972Z,11.29
2023-05-31T02:23:17.417Z,11.26
2023-05-31T02:26:06.323Z,11.25
2023-05-31T02:28:54.737Z,11.23
2023-05-31T02:31:43.246Z,11.21
2023-05-31T02:34:32.880Z,11.18
2023-05-31T02:37:21.020Z,11.18
2023-05-31T02:40:09.964Z,11.15
2023-05-31T02:42:58.649Z,11.13
2023-05-31T02:45:46.965Z,11.14
2023-05-31T02:48:35.859Z,11.12
2023-05-31T02:51:29.178Z,11.09
2023-05-31T02:54:43.271Z,11.05
2023-05-31T02:57:35.981Z,11.04
2023-05-31T03:00:25.111Z,11.03
2023-05-31T03:03:13.446Z,11.01
2023-05-31T03:06:20.539Z,11.00
2023-05-31T03:09:08.789Z,11.00
2023-05-31T03:11:58.401Z,10.99
2023-05-31T03:14:48.595Z,10.99
2023-05-31T03:17:38.498Z,10.96
2023-05-31T03:20:26.998Z,10.96
2023-05-31T03:23:14.934Z,10.96
2023-05-31T03:26:05.961Z,10.95
2023-05-31T03:28:54.130Z,10.94
2023-05-31T03:31:42.739Z,10.95
2023-05-31T03:34:31.663Z,10.95
2023-05-31T03:37:20.250Z,10.93
2023-05-31T03:40:16.925Z,10.91
2023-05-31T03:43:06.184Z,10.90
2023-05-31T03:45:54.571Z,10.87
2023-05-31T03:48:42.994Z,10.87
2023-05-31T03:51:31.454Z,10.84
2023-05-31T03:54:19.586Z,10.83
2023-05-31T03:57:08.526Z,10.83
2023-05-31T03:59:56.834Z,10.85
2023-05-31T04:02:55.974Z,10.87
2023-05-31T04:05:51.221Z,10.88
2023-05-31T04:08:39.343Z,10.90
2023-05-31T04:11:27.157Z,10.91
2023-05-31T04:14:15.171Z,10.92
2023-05-31T04:17:03.826Z,10.94
2023-05-31T04:19:52.413Z,10.96
2023-05-31T04:22:40.458Z,10.99
2023-05-31T04:25:28.814Z,11.01
2023-05-31T04:28:21.530Z,11.03
2023-05-31T04:31:09.775Z,11.00
2023-05-31T04:33:58.189Z,11.03
2023-05-31T04:36:52.735Z,11.08
2023-05-31T04:39:43.610Z,11.13
2023-05-31T04:42:33.741Z,11.19
2023-05-31T04:45:22.756Z,11.41
2023-05-31T04:48:16.248Z,11.65
2023-05-31T04:51:05.505Z,11.91
2023-05-31T04:53:54.722Z,12.16
2023-05-31T04:56:43.364Z,12.35
2023-05-31T04:59:33.246Z,12.46
2023-05-31T05:02:25.249Z,12.56
2023-05-31T05:05:14.286Z,12.58
2023-05-31T05:08:02.363Z,12.61
2023-05-31T05:10:50.971Z,12.59
2023-05-31T05:13:42.672Z,12.54
2023-05-31T05:16:31.053Z,12.56
2023-05-31T05:19:19.311Z,12.62
2023-05-31T05:22:08.216Z,12.70
2023-05-31T05:24:56.190Z,12.78
2023-05-31T05:27:44.372Z,12.87
2023-05-31T05:30:33.670Z,12.94
2023-05-31T05:34:00.694Z,13.02
2023-05-31T05:36:41.830Z,13.07
2023-05-31T05:39:29.845Z,13.15
2023-05-31T05:42:18.102Z,13.26
2023-05-31T05:45:10.219Z,13.36
2023-05-31T05:47:59.575Z,13.46
2023-05-31T05:50:48.373Z,13.54
2023-05-31T05:53:36.413Z,13.62
2023-05-31T05:56:24.558Z,13.71
2023-05-31T05:59:18.825Z,13.76
2023-05-31T06:02:34.113Z,13.87
2023-05-31T06:05:27.856Z,14.02
2023-05-31T06:08:16.855Z,14.19
2023-05-31T06:11:12.522Z,14.29
2023-05-31T06:14:06.392Z,14.38
2023-05-31T06:17:00.714Z,14.52
2023-05-31T06:19:48.675Z,14.66
2023-05-31T06:22:36.475Z,14.79
2023-05-31T06:25:24.443Z,14.91
2023-05-31T06:28:12.640Z,15.05
2023-05-31T06:31:02.160Z,15.21
2023-05-31T06:33:57.836Z,15.36
2023-05-31T06:36:55.053Z,15.49
2023-05-31T06:39:43.533Z,15.67
2023-05-31T06:42:31.806Z,15.88
2023-05-31T06:46:15.210Z,16.04
2023-05-31T06:49:38.161Z,16.22
2023-05-31T06:52:42.004Z,16.37
2023-05-31T06:55:48.779Z,16.58
2023-05-31T06:58:44.788Z,16.81
2023-05-31T07:01:37.842Z,16.96
2023-05-31T07:04:26.892Z,17.14
2023-05-31T07:07:26.754Z,17.25
2023-05-31T07:10:23.641Z,17.39
2023-05-31T07:13:28.833Z,17.55
2023-05-31T07:16:17.871Z,17.70
2023-05-31T07:19:11.555Z,17.79
2023-05-31T07:22:01.363Z,17.98
2023-05-31T07:24:49.613Z,18.18
2023-05-31T07:27:38.014Z,18.29
2023-05-31T07:30:26.548Z,18.47
2023-05-31T07:33:14.455Z,18.61
2023-05-31T07:36:12.725Z,18.77
2023-05-31T07:39:00.929Z,18.90
2023-05-31T07:41:48.798Z,19.05
2023-05-31T07:44:36.711Z,19.21
2023-05-31T07:47:25.359Z,19.37
2023-05-31T07:50:13.336Z,19.49
2023-05-31T07:53:01.240Z,19.59
2023-05-31T07:55:49.165Z,19.69
2023-05-31T07:58:37.666Z,19.87
2023-05-31T08:01:25.546Z,19.98
2023-05-31T08:04:13.599Z,20.04
2023-05-31T08:07:02.240Z,20.09
2023-05-31T08:09:50.040Z,20.19
2023-05-31T08:13:08.317Z,20.36
2023-05-31T08:15:56.911Z,20.55
2023-05-31T08:18:46.111Z,20.72
2023-05-31T08:21:34.032Z,20.78
2023-05-31T08:24:21.838Z,20.88
2023-05-31T08:27:09.632Z,20.99
2023-05-31T08:29:57.489Z,21.05
2023-05-31T08:32:45.575Z,21.14
2023-05-31T08:35:33.363Z,21.24
2023-05-31T08:38:21.117Z,21.36
2023-05-31T08:41:09.081Z,21.50
2023-05-31T08:43:58.075Z,21.66
2023-05-31T08:46:49.085Z,21.82
2023-05-31T08:49:37.362Z,21.88
2023-05-31T08:52:26.496Z,21.98
2023-05-31T08:55:15.129Z,22.02
2023-05-31T08:58:03.797Z,22.02
2023-05-31T09:00:51.809Z,22.16
2023-05-31T09:03:43.263Z,22.26
2023-05-31T09:06:31.605Z,22.28
2023-05-31T09:09:20.185Z,22.29
2023-05-31T09:12:08.469Z,22.38
2023-05-31T09:14:56.400Z,22.41
2023-05-31T09:17:47.687Z,22.46
2023-05-31T09:20:35.668Z,22.58
2023-05-31T09:23:23.540Z,22.65
2023-05-31T09:26:11.406Z,22.77
2023-05-31T09:28:59.966Z,22.84
2023-05-31T09:31:48.310Z,22.89
2023-05-31T09:34:36.068Z,22.97
2023-05-31T09:37:25.758Z,23.13
2023-05-31T09:40:30.795Z,23.21
2023-05-31T09:43:18.534Z,23.29
2023-05-31T09:46:13.276Z,23.39
2023-05-31T09:49:07.773Z,23.44
2023-05-31T09:51:56.943Z,23.36
2023-05-31T09:54:44.865Z,23.38
2023-05-31T09:57:41.389Z,23.52
2023-05-31T10:00:29.426Z,23.61
2023-05-31T10:03:17.895Z,23.68
2023-05-31T10:06:05.943Z,23.76
2023-05-31T10:08:54.004Z,23.82
2023-05-31T10:11:51.397Z,23.91
2023-05-31T10:14:47.236Z,24.03
2023-05-31T10:17:46.192Z,24.10
2023-05-31T10:20:57.216Z,24.14
2023-05-31T10:23:56.075Z,24.15
2023-05-31T10:27:25.228Z,24.16
2023-05-31T10:30:14.945Z,24.15
2023-05-31T10:33:13.360Z,24.19
2023-05-31T10:36:01.982Z,24.25
2023-05-31T10:39:01.297Z,24.31
2023-05-31T10:41:59.294Z,24.39
2023-05-31T10:45:05.099Z,24.50
2023-05-31T10:48:03.529Z,24.61
2023-05-31T10:51:00.061Z,24.67
2023-05-31T10:53:48.140Z,24.73
2023-05-31T10:56:40.171Z,24.74
2023-05-31T10:59:28.336Z,24.75
2023-05-31T11:02:18.204Z,24.85
2023-05-31T11:05:28.044Z,24.87
2023-05-31T11:08:16.248Z,24.93
2023-05-31T11:11:32.841Z,25.05
2023-05-31T11:14:27.568Z,25.03
2023-05-31T11:17:16.811Z,25.01
2023-05-31T11:20:06.720Z,25.09
2023-05-31T11:23:32.810Z,25.20
2023-05-31T11:26:22.180Z,25.30
2023-05-31T11:29:10.030Z,25.41
2023-05-31T11:32:00.391Z,25.49
2023-05-31T11:34:57.406Z,25.61
2023-05-31T11:37:45.418Z,25.61
2023-05-31T11:40:36.547Z,25.58
2023-05-31T11:43:27.106Z,25.61
2023-05-31T11:46:15.245Z,25.63
2023-05-31T11:49:03.092Z,25.62
2023-05-31T11:51:50.990Z,25.60
2023-05-31T11:54:38.960Z,25.69
2023-05-31T11:57:27.434Z,25.82
2023-05-31T12:00:16.588Z,25.95
2023-05-31T12:03:06.837Z,25.92
2023-05-31T12:06:00.299Z,25.84
2023-05-31T12:08:48.137Z,25.94
2023-05-31T12:11:37.126Z,25.97
2023-05-31T12:14:27.421Z,25.95
2023-05-31T12:17:15.484Z,26.00
2023-05-31T12:20:06.173Z,26.07
2023-05-31T12:23:08.476Z,26.12
2023-05-31T12:26:00.130Z,26.22
2023-05-31T12:28:48.326Z,26.34
2023-05-31T12:31:38.822Z,26.43
2023-05-31T12:34:27.331Z,26.43
2023-05-31T12:37:15.148Z,26.35
2023-05-31T12:40:17.817Z,26.31
2023-05-31T12:43:06.849Z,26.35
2023-05-31T12:45:54.664Z,26.37
2023-05-31T12:48:49.571Z,26.33
2023-05-31T12:51:37.897Z,26.29
2023-05-31T12:54:31.902Z,26.34
2023-05-31T12:57:19.712Z,26.45
2023-05-31T13:00:12.417Z,26.59
2023-05-31T13:03:00.533Z,26.65
2023-05-31T13:05:48.545Z,26.64
2023-05-31T13:08:36.362Z,26.69
2023-05-31T13:11:24.164Z,26.67
2023-05-31T13:14:12.518Z,26.55
2023-05-31T13:17:00.571Z,26.52
2023-05-31T13:19:57.157Z,26.59
2023-05-31T13:22:59.012Z,26.66
2023-05-31T13:25:47.486Z,26.63
2023-05-31T13:28:35.448Z,26.60
2023-05-31T13:31:24.960Z,26.78
2023-05-31T13:34:12.747Z,26.80
2023-05-31T13:37:00.544Z,26.90
2023-05-31T13:39:48.874Z,26.96
2023-05-31T13:42:36.636Z,26.93
2023-05-31T13:45:24.487Z,26.92
2023-05-31T13:48:14.506Z,27.03
2023-05-31T13:51:02.566Z,27.18
2023-05-31T13:53:50.785Z,27.25
2023-05-31T13:56:38.616Z,27.21
2023-05-31T13:59:26.418Z,27.22
2023-05-31T14:02:14.163Z,27.28
2023-05-31T14:05:04.483Z,27.28
2023-05-31T14:07:52.511Z,27.35
2023-05-31T14:10:40.606Z,27.33
2023-05-31T14:13:30.205Z,27.29
2023-05-31T14:16:18.072Z,27.36
2023-05-31T14:19:06.296Z,27.37
2023-05-31T14:21:54.056Z,27.46
2023-05-31T14:24:41.909Z,27.55
2023-05-31T14:27:29.715Z,27.73
2023-05-31T14:30:17.520Z,27.82
2023-05-31T14:33:05.578Z,27.82
2023-05-31T14:35:53.891Z,27.83
2023-05-31T14:38:43.129Z,27.77
2023-05-31T14:41:30.993Z,27.83
2023-05-31T14:44:18.862Z,27.92
2023-05-31T14:47:06.881Z,27.95
2023-05-31T14:49:54.643Z,27.94
2023-05-31T14:52:42.467Z,27.98
2023-05-31T14:55:30.436Z,28.04
2023-05-31T14:58:18.378Z,28.07
2023-05-31T15:01:06.408Z,28.16
2023-05-31T15:03:56.285Z,28.26
2023-05-31T15:06:44.208Z,28.26
2023-05-31T15:09:32.067Z,28.24
2023-05-31T15:12:19.791Z,28.08
2023-05-31T15:15:08.142Z,28.14
2023-05-31T15:17:56.009Z,28.16
2023-05-31T15:20:43.785Z,28.22
2023-05-31T15:23:31.586Z,28.27
2023-05-31T15:26:19.629Z,28.25
2023-05-31T15:29:07.462Z,28.26
2023-05-31T15:31:58.122Z,28.15
2023-05-31T15:34:45.982Z,28.07
2023-05-31T15:37:34.520Z,27.97
2023-05-31T15:40:22.321Z,27.98
2023-05-31T15:43:10.052Z,27.97
2023-05-31T15:45:57.912Z,27.86
2023-05-31T15:48:45.718Z,27.95
2023-05-31T15:51:33.465Z,28.09
2023-05-31T15:54:21.370Z,28.11
2023-05-31T15:57:09.786Z,28.28
2023-05-31T15:59:57.525Z,28.49
2023-05-31T16:02:45.345Z,28.55
2023-05-31T16:05:33.386Z,28.49
2023-05-31T16:08:21.293Z,28.40
2023-05-31T16:11:09.146Z,28.27
2023-05-31T16:13:56.888Z,28.33
2023-05-31T16:16:44.726Z,28.41
2023-05-31T16:19:32.620Z,28.43
2023-05-31T16:22:20.473Z,28.42
2023-05-31T16:25:10.462Z,28.27
2023-05-31T16:27:58.252Z,28.10
2023-05-31T16:30:46.337Z,27.92
2023-05-31T16:33:34.089Z,27.86
2023-05-31T16:36:22.238Z,27.91
2023-05-31T16:39:10.060Z,27.94
2023-05-31T16:41:59.197Z,28.01
2023-05-31T16:44:46.926Z,28.04
2023-05-31T16:47:34.730Z,28.06
2023-05-31T16:50:22.673Z,28.05
2023-05-31T16:53:10.895Z,28.04
2023-05-31T16:55:58.904Z,28.13
2023-05-31T16:58:46.768Z,28.12
2023-05-31T17:01:35.056Z,28.02
2023-05-31T17:04:22.908Z,27.91
2023-05-31T17:07:10.867Z,27.82
2023-05-31T17:09:59.193Z,27.69
2023-05-31T17:12:48.076Z,27.63
2023-05-31T17:15:36.036Z,27.54
2023-05-31T17:18:24.104Z,27.47
2023-05-31T17:21:11.828Z,27.47
2023-05-31T17:23:59.694Z,27.47
2023-05-31T17:26:48.413Z,27.48
2023-05-31T17:29:36.166Z,27.49
2023-05-31T17:32:23.914Z,27.37
2023-05-31T17:35:11.705Z,27.35
2023-05-31T17:37:59.417Z,27.29
2023-05-31T17:40:47.236Z,27.31
2023-05-31T17:43:36.333Z,27.33
2023-05-31T17:46:24.367Z,27.25
2023-05-31T17:49:12.252Z,27.23
2023-05-31T17:52:00.149Z,27.13
2023-05-31T17:54:47.957Z,27.03
2023-05-31T17:57:36.184Z,26.98
2023-05-31T18:00:24.047Z,26.93
2023-05-31T18:03:11.860Z,26.76
2023-05-31T18:05:59.858Z,26.57
2023-05-31T18:08:47.643Z,26.36
2023-05-31T18:11:35.403Z,26.18
2023-05-31T18:14:23.228Z,26.03
2023-05-31T18:17:11.008Z,25.89
2023-05-31T18:19:58.806Z,25.69
2023-05-31T18:22:46.632Z,25.56
2023-05-31T18:25:34.932Z,25.45
2023-05-31T18:28:23.500Z,25.33
2023-05-31T18:31:11.425Z,25.29
2023-05-31T18:33:59.791Z,25.27
2023-05-31T18:36:47.667Z,25.18
2023-05-31T18:39:35.687Z,25.01
2023-05-31T18:42:23.513Z,24.81
2023-05-31T18:45:12.995Z,24.63
2023-05-31T18:48:06.864Z,24.50
2023-05-31T18:50:54.707Z,24.35
2023-05-31T18:53:42.645Z,24.23
2023-05-31T18:56:31.209Z,24.09
2023-05-31T18:59:19.327Z,23.99
2023-05-31T19:02:07.904Z,23.81
2023-05-31T19:04:55.848Z,23.62
2023-05-31T19:07:44.037Z,23.44
2023-05-31T19:10:34.871Z,23.24
2023-05-31T19:13:22.754Z,23.06
2023-05-31T19:16:10.734Z,22.89
2023-05-31T19:18:58.750Z,22.72
2023-05-31T19:21:46.692Z,22.54
2023-05-31T19:24:34.572Z,22.34
2023-05-31T19:27:22.369Z,22.13
2023-05-31T19:30:10.866Z,21.92
2023-05-31T19:32:58.672Z,21.74
2023-05-31T19:35:46.890Z,21.57
2023-05-31T19:38:34.691Z,21.40
2023-05-31T19:41:22.951Z,21.25
2023-05-31T19:44:10.817Z,21.09
2023-05-31T19:46:58.651Z,20.95
2023-05-31T19:49:46.529Z,20.83
2023-05-31T19:52:34.341Z,20.73
2023-05-31T19:55:22.093Z,20.60
2023-05-31T19:58:09.900Z,20.49
2023-05-31T20:00:57.868Z,20.39
2023-05-31T20:03:45.878Z,20.27
2023-05-31T20:06:33.734Z,20.13
2023-05-31T20:09:21.494Z,20.01
2023-05-31T20:12:09.661Z,19.90
2023-05-31T20:14:58.389Z,19.78
2023-05-31T20:17:47.664Z,19.67
2023-05-31T20:20:35.488Z,19.60
2023-05-31T20:23:23.283Z,19.50
2023-05-31T20:26:11.304Z,19.42
2023-05-31T20:28:59.084Z,19.33
2023-05-31T20:31:47.093Z,19.22
2023-05-31T20:34:34.970Z,19.13
2023-05-31T20:37:22.707Z,19.03
2023-05-31T20:40:11.392Z,18.93
2023-05-31T20:42:59.196Z,18.84
2023-05-31T20:45:46.983Z,18.76
2023-05-31T20:48:34.765Z,18.65
2023-05-31T20:51:23.549Z,18.58
2023-05-31T20:54:11.347Z,18.47
2023-05-31T20:56:59.916Z,18.40
2023-05-31T20:59:47.918Z,18.29
2023-05-31T21:02:38.008Z,18.19
2023-05-31T21:05:26.035Z,18.12
2023-05-31T21:08:13.795Z,18.00
2023-05-31T21:11:01.580Z,17.90
2023-05-31T21:13:49.421Z,17.81
2023-05-31T21:16:37.316Z,17.67
2023-05-31T21:19:25.866Z,17.55
2023-05-31T21:22:13.599Z,17.44
2023-05-31T21:25:01.357Z,17.35
2023-05-31T21:27:49.094Z,17.25
2023-05-31T21:30:36.950Z,17.15
2023-05-31T21:33:24.853Z,17.06
2023-05-31T21:36:12.595Z,16.94
2023-05-31T21:39:00.423Z,16.85
2023-05-31T21:41:48.243Z,16.72
2023-05-31T21:44:36.186Z,16.63
2023-05-31T21:47:23.969Z,16.54
2023-05-31T21:50:11.914Z,16.43
2023-05-31T21:52:59.753Z,16.34
2023-05-31T21:55:47.564Z,16.24
2023-05-31T21:58:35.353Z,16.16
2023-05-31T22:01:24.904Z,16.11
2023-05-31T22:04:12.800Z,16.02
2023-05-31T22:07:00.576Z,15.95
2023-05-31T22:09:48.499Z,15.87
2023-05-31T22:12:36.543Z,15.82
2023-05-31T22:15:27.040Z,15.73
2023-05-31T22:18:15.197Z,15.63
2023-05-31T22:21:05.706Z,15.54
2023-05-31T22:23:54.102Z,15.45
2023-05-31T22:26:41.923Z,15.36
2023-05-31T22:29:29.668Z,15.30
2023-05-31T22:32:19.879Z,15.24
2023-05-31T22:35:08.263Z,15.19
2023-05-31T22:37:56.267Z,15.12
2023-05-31T22:40:44.265Z,15.07
2023-05-31T22:43:32.366Z,15.00
2023-05-31T22:46:20.600Z,14.93
2023-05-31T22:49:08.424Z,14.85
2023-05-31T22:52:00.023Z,14.77
2023-05-31T22:54:48.255Z,14.69
2023-05-31T22:57:36.062Z,14.64
2023-05-31T23:00:23.864Z,14.59
2023-05-31T23:03:11.718Z,14.52
2023-05-31T23:06:01.758Z,14.44
2023-05-31T23:08:50.246Z,14.36
2023-05-31T23:11:38.343Z,14.32
2023-05-31T23:14:27.510Z,14.25
2023-05-31T23:17:17.398Z,14.21
2023-05-31T23:20:16.246Z,14.14
2023-05-31T23:23:05.678Z,14.02
2023-05-31T23:25:53.662Z,13.96
2023-05-31T23:28:41.468Z,13.90
2023-05-31T23:31:29.451Z,13.84
2023-05-31T23:34:17.342Z,13.76
2023-05-31T23:37:05.713Z,13.67
2023-05-31T23:39:54.076Z,13.61
2023-05-31T23:42:41.906Z,13.55
2023-05-31T23:45:29.832Z,13.47
2023-05-31T23:48:17.577Z,13.39
2023-05-31T23:51:05.545Z,13.33
2023-05-31T23:53:53.386Z,13.25
2023-05-31T23:56:41.381Z,13.17
2023-05-31T23:59:29.209Z,13.13
